Time;durP1;ratioP1;P1;durP2;ratioP2;P2;SDS_P1;SDS_P2;PMS_P1;PMS_P2;Temp;Humidity;BMP_temperature;BMP_pressure;BME280_temperature;BME280_humidity;BME280_pressure;Samples;Min_cycle;Max_cycle;Signal;HPM_P1;HPM_P2
2022/10/14 00:04:43;;;;;;;2.72;1.73;;;20.80;72.80;;;;;;10362258;28;20089;-39
2022/10/14 00:09:45;;;;;;;2.10;1.50;;;20.80;72.90;;;;;;10370156;28;20141;-37
2022/10/14 00:14:47;;;;;;;2.13;1.50;;;20.80;72.90;;;;;;10356956;28;20046;-38
2022/10/14 00:19:50;;;;;;;2.50;1.85;;;20.80;72.90;;;;;;10366146;28;20073;-43
2022/10/14 00:24:52;;;;;;;1.90;1.70;;;20.80;72.80;;;;;;10354822;28;20137;-39
2022/10/14 00:29:54;;;;;;;1.92;1.20;;;20.80;73.00;;;;;;10352819;28;20084;-37
2022/10/14 00:34:57;;;;;;;2.70;1.75;;;20.70;73.00;;;;;;10367167;28;20187;-36
2022/10/14 00:39:59;;;;;;;1.88;1.40;;;20.80;73.00;;;;;;10374637;28;20052;-38
2022/10/14 00:45:11;;;;;;;3.78;1.65;;;20.70;72.90;;;;;;10365454;28;20203;-47
2022/10/14 00:50:17;;;;;;;2.88;1.90;;;20.70;73.10;;;;;;10348804;28;20125;-39
2022/10/14 00:55:19;;;;;;;1.73;1.40;;;20.70;73.30;;;;;;10368378;28;20053;-38
2022/10/14 01:00:21;;;;;;;;;;;20.70;73.20;;;;;;10361294;28;20680;-38
2022/10/14 01:05:33;;;;;;;3.33;1.65;;;20.70;73.40;;;;;;10350024;28;19949;-39
2022/10/14 01:10:42;;;;;;;4.30;1.45;;;20.70;73.30;;;;;;10361756;28;20442;-35
2022/10/14 01:15:54;;;;;;;2.13;1.55;;;20.70;73.20;;;;;;10345326;28;20652;-36
2022/10/14 01:21:07;;;;;;;3.47;1.65;;;20.70;73.10;;;;;;10366008;28;20077;-40
2022/10/14 01:26:37;;;;;;;3.03;1.40;;;20.60;73.20;;;;;;10353696;28;20069;-38
2022/10/14 01:31:45;;;;;;;4.45;1.50;;;20.70;73.30;;;;;;10362425;28;20088;-39
2022/10/14 01:36:54;;;;;;;5.30;1.73;;;20.70;73.20;;;;;;10349505;28;20181;-38
2022/10/14 01:41:59;;;;;;;2.47;1.50;;;20.60;73.20;;;;;;10350083;28;20074;-38
2022/10/14 01:47:04;;;;;;;4.93;1.35;;;20.60;73.40;;;;;;10349981;28;20152;-39
2022/10/14 01:52:10;;;;;;;2.53;1.50;;;20.60;73.50;;;;;;10356683;28;20482;-36
2022/10/14 01:57:16;;;;;;;3.63;1.60;;;20.60;73.70;;;;;;10368313;28;20119;-40
2022/10/14 02:02:20;;;;;;;2.58;1.38;;;20.60;73.50;;;;;;10363968;28;20128;-38
2022/10/14 02:07:26;;;;;;;1.73;1.30;;;20.60;73.60;;;;;;10358323;28;20085;-36
2022/10/14 02:12:37;;;;;;;2.92;1.83;;;20.60;73.50;;;;;;10357370;28;20112;-39
2022/10/14 02:17:50;;;;;;;2.13;1.50;;;20.60;73.60;;;;;;10359247;28;20490;-37
2022/10/14 02:22:57;;;;;;;3.03;1.85;;;20.60;73.80;;;;;;10351448;28;20591;-40
2022/10/14 02:28:00;;;;;;;2.30;1.40;;;20.60;73.70;;;;;;10364011;28;20045;-38
2022/10/14 02:33:05;;;;;;;2.72;1.65;;;20.60;73.70;;;;;;10354871;28;20407;-37
2022/10/14 02:38:08;;;;;;;3.33;1.55;;;20.60;74.30;;;;;;10366240;28;20137;-38
2022/10/14 02:43:10;;;;;;;1.60;1.05;;;20.60;73.90;;;;;;10361712;28;20053;-39
2022/10/14 02:48:14;;;;;;;2.80;1.52;;;20.60;73.70;;;;;;10344289;28;20475;-38
2022/10/14 02:53:17;;;;;;;2.20;1.60;;;20.60;73.40;;;;;;10358646;28;20129;-37
2022/10/14 02:58:18;;;;;;;2.53;1.70;;;20.50;73.70;;;;;;10361773;28;20099;-37
2022/10/14 03:03:22;;;;;;;2.17;1.30;;;20.60;73.90;;;;;;10355254;28;20100;-37
2022/10/14 03:08:23;;;;;;;1.85;1.50;;;20.60;73.80;;;;;;10360308;28;20346;-39
2022/10/14 03:13:25;;;;;;;2.92;1.40;;;20.60;73.90;;;;;;10362609;28;20153;-37
2022/10/14 03:18:29;;;;;;;2.50;1.58;;;20.50;74.10;;;;;;10360490;28;20189;-37
2022/10/14 03:23:31;;;;;;;2.40;1.80;;;20.50;73.90;;;;;;10373602;28;20046;-38
2022/10/14 03:28:33;;;;;;;2.53;1.50;;;20.50;73.90;;;;;;10367660;28;20054;-40
2022/10/14 03:33:37;;;;;;;2.20;1.90;;;20.60;74.00;;;;;;10350278;28;20128;-37
2022/10/14 03:38:39;;;;;;;1.75;1.63;;;20.60;74.20;;;;;;10358684;28;20042;-39
2022/10/14 03:43:41;;;;;;;2.90;1.98;;;20.60;73.90;;;;;;10358614;28;20487;-40
2022/10/14 03:48:44;;;;;;;2.42;1.63;;;20.60;74.00;;;;;;10368855;28;20105;-37
2022/10/14 03:53:46;;;;;;;2.38;2.05;;;20.60;74.10;;;;;;10366088;28;20089;-38
2022/10/14 03:58:48;;;;;;;2.75;2.00;;;20.60;74.10;;;;;;10355808;28;20120;-37
2022/10/14 04:03:51;;;;;;;2.20;2.00;;;20.60;74.20;;;;;;10369733;28;20100;-37
2022/10/14 04:08:52;;;;;;;2.38;1.90;;;20.60;74.10;;;;;;10357231;28;20105;-38
2022/10/14 04:13:57;;;;;;;2.25;1.83;;;20.50;74.00;;;;;;10366923;28;20058;-38
2022/10/14 04:19:01;;;;;;;4.30;2.22;;;20.50;74.30;;;;;;10366726;28;20145;-37
2022/10/14 04:24:03;;;;;;;2.50;2.10;;;20.50;74.40;;;;;;10365528;28;20132;-38
2022/10/14 04:29:04;;;;;;;2.22;2.00;;;20.50;74.30;;;;;;10352147;28;20173;-37
2022/10/14 04:34:10;;;;;;;3.63;3.03;;;20.60;74.40;;;;;;10355580;28;20054;-37
2022/10/14 04:39:11;;;;;;;3.67;2.40;;;20.50;74.50;;;;;;10357662;28;20137;-38
2022/10/14 04:44:13;;;;;;;3.78;2.88;;;20.60;74.50;;;;;;10354705;28;20455;-37
2022/10/14 04:49:16;;;;;;;2.97;2.67;;;20.50;74.70;;;;;;10362742;28;20647;-38
2022/10/14 04:54:19;;;;;;;3.72;3.03;;;20.50;74.80;;;;;;10346195;28;20065;-37
2022/10/14 04:59:20;;;;;;;3.33;2.45;;;20.50;74.60;;;;;;10353646;28;20125;-37
2022/10/14 05:04:23;;;;;;;4.78;3.03;;;20.50;74.70;;;;;;10358329;28;20133;-34
2022/10/14 05:09:25;;;;;;;4.50;2.92;;;20.50;74.50;;;;;;10351549;28;20148;-37
2022/10/14 05:14:28;;;;;;;3.65;2.60;;;20.50;75.30;;;;;;10347091;28;20078;-37
2022/10/14 05:19:31;;;;;;;3.40;2.92;;;20.40;75.30;;;;;;10348155;28;20050;-37
2022/10/14 05:24:33;;;;;;;3.88;2.85;;;20.60;75.00;;;;;;10346048;28;20038;-36
2022/10/14 05:29:35;;;;;;;3.47;2.47;;;20.50;75.20;;;;;;10348545;28;20145;-38
2022/10/14 05:34:38;;;;;;;3.03;2.72;;;20.50;75.20;;;;;;10333811;28;20158;-37
2022/10/14 05:39:40;;;;;;;4.43;2.80;;;20.50;75.00;;;;;;10337688;28;20395;-37
2022/10/14 05:44:41;;;;;;;5.15;3.20;;;20.50;75.00;;;;;;10343695;28;20137;-36
2022/10/14 05:49:44;;;;;;;3.38;3.03;;;20.50;75.30;;;;;;10340192;28;20069;-37
2022/10/14 05:54:46;;;;;;;4.07;2.45;;;20.50;75.40;;;;;;10342775;28;20521;-37
2022/10/14 05:59:48;;;;;;;3.85;2.63;;;20.50;75.30;;;;;;10341643;28;20077;-38
2022/10/14 06:04:51;;;;;;;4.90;3.25;;;20.60;75.30;;;;;;10336355;28;20070;-37
2022/10/14 06:09:53;;;;;;;5.43;3.33;;;20.50;75.40;;;;;;10332840;28;20161;-37
2022/10/14 06:14:55;;;;;;;7.28;2.40;;;20.40;76.00;;;;;;10350573;28;20081;-36
2022/10/14 06:19:58;;;;;;;6.97;2.88;;;20.50;75.80;;;;;;10355000;28;20066;-36
2022/10/14 06:25:00;;;;;;;4.75;2.50;;;20.50;75.70;;;;;;10366119;28;20494;-37
2022/10/14 06:30:02;;;;;;;2.78;2.47;;;20.60;75.70;;;;;;10356984;28;20105;-37
2022/10/14 06:35:06;;;;;;;3.05;2.25;;;20.50;76.10;;;;;;10360834;28;20057;-38
2022/10/14 06:40:09;;;;;;;14.43;7.50;;;20.40;76.30;;;;;;10369043;28;20077;-37
2022/10/14 06:45:11;;;;;;;3.55;2.88;;;20.30;76.50;;;;;;10362840;28;20126;-39
2022/10/14 06:50:14;;;;;;;2.92;2.35;;;20.40;76.40;;;;;;10360365;28;20109;-36
2022/10/14 06:55:16;;;;;;;5.70;3.85;;;20.40;76.20;;;;;;10360788;28;20482;-37
2022/10/14 07:00:18;;;;;;;4.72;3.40;;;20.40;76.10;;;;;;10362528;28;20420;-37
2022/10/14 07:05:22;;;;;;;3.70;2.78;;;20.30;76.60;;;;;;10372298;28;20104;-37
2022/10/14 07:10:23;;;;;;;4.30;2.85;;;20.30;76.40;;;;;;10369583;28;20128;-37
2022/10/14 07:15:25;;;;;;;5.55;3.53;;;20.40;76.00;;;;;;10361068;28;20046;-37
2022/10/14 07:20:29;;;;;;;3.22;2.40;;;20.20;77.40;;;;;;10366934;28;20049;-36
2022/10/14 07:25:31;;;;;;;3.13;2.33;;;20.50;76.60;;;;;;10358805;28;20050;-36
2022/10/14 07:30:33;;;;;;;7.13;4.00;;;20.50;76.10;;;;;;10359345;28;20673;-37
2022/10/14 07:35:37;;;;;;;16.42;7.70;;;20.40;76.40;;;;;;10370566;28;20070;-38
2022/10/14 07:40:39;;;;;;;10.77;3.38;;;20.30;78.70;;;;;;10358996;28;20554;-39
2022/10/14 07:45:42;;;;;;;5.97;3.72;;;20.50;76.30;;;;;;10354077;28;20313;-38
2022/10/14 07:50:50;;;;;;;9.48;3.47;;;20.50;76.10;;;;;;10350215;28;20061;-36
2022/10/14 07:55:52;;;;;;;11.27;4.65;;;20.60;75.90;;;;;;10338284;28;20109;-36
2022/10/14 08:00:55;;;;;;;11.80;4.07;;;20.50;76.20;;;;;;10349857;28;20539;-37
2022/10/14 08:06:03;;;;;;;12.63;4.95;;;20.50;76.20;;;;;;10348826;28;20060;-38
2022/10/14 08:11:07;;;;;;;10.05;4.32;;;20.60;76.20;;;;;;10379109;28;20087;-36
2022/10/14 08:16:15;;;;;;;12.95;4.13;;;20.50;76.40;;;;;;10351353;28;20073;-36
2022/10/14 08:21:20;;;;;;;10.55;3.65;;;20.60;76.40;;;;;;10372117;28;20058;-38
2022/10/14 08:26:26;;;;;;;10.70;4.38;;;20.60;76.40;;;;;;10356569;28;20055;-38
2022/10/14 08:31:29;;;;;;;6.55;3.65;;;20.50;76.50;;;;;;10353657;28;20046;-36
2022/10/14 08:36:33;;;;;;;11.57;4.30;;;20.60;76.40;;;;;;10360384;28;20046;-37
2022/10/14 08:41:58;;;;;;;5.18;3.15;;;20.60;76.50;;;;;;10344299;28;20111;-37
2022/10/14 08:47:02;;;;;;;6.05;3.63;;;20.60;76.40;;;;;;10362367;28;20089;-36
2022/10/14 08:52:10;;;;;;;6.78;3.80;;;20.60;76.60;;;;;;10354298;28;20070;-37
2022/10/14 08:57:16;;;;;;;6.07;2.92;;;20.50;77.20;;;;;;10364517;28;20128;-40
2022/10/14 09:02:30;;;;;;;8.98;3.55;;;20.50;77.60;;;;;;10346251;28;20073;-37
2022/10/14 09:07:34;;;;;;;5.03;2.97;;;20.50;77.10;;;;;;10356064;28;20065;-35
2022/10/14 09:12:39;;;;;;;5.93;3.50;;;20.60;77.10;;;;;;10337897;28;20169;-39
2022/10/14 09:17:46;;;;;;;6.45;4.07;;;20.40;79.50;;;;;;10353855;28;20070;-38
2022/10/14 09:23:05;;;;;;;6.63;3.47;;;19.70;82.20;;;;;;10352280;28;20450;-37
2022/10/14 09:28:09;;;;;;;2.45;2.20;;;19.90;84.60;;;;;;10354604;28;20082;-37
2022/10/14 09:33:16;;;;;;;6.10;2.85;;;20.20;81.90;;;;;;10370571;28;20074;-37
2022/10/14 09:38:20;;;;;;;8.55;4.35;;;20.20;79.60;;;;;;10340782;28;20053;-36
2022/10/14 09:43:23;;;;;;;6.88;5.22;;;20.10;82.60;;;;;;10340438;28;20205;-37
2022/10/14 09:48:37;;;;;;;4.80;3.03;;;19.60;84.10;;;;;;10370953;28;20132;-36
2022/10/14 09:53:45;;;;;;;5.50;4.65;;;19.40;85.20;;;;;;10351144;28;20052;-38
2022/10/14 09:58:52;;;;;;;2.97;1.80;;;19.20;88.30;;;;;;10355637;28;20120;-36
2022/10/14 10:03:55;;;;;;;5.28;3.75;;;19.70;83.50;;;;;;10346725;28;20050;-37
2022/10/14 10:09:00;;;;;;;6.97;3.25;;;19.80;83.00;;;;;;10353817;28;20060;-37
2022/10/14 10:14:17;;;;;;;3.50;3.20;;;19.50;85.90;;;;;;10346311;28;20054;-36
2022/10/14 10:19:28;;;;;;;3.67;3.28;;;18.90;90.50;;;;;;10356387;28;20053;-36
2022/10/14 10:24:31;;;;;;;8.40;5.90;;;19.00;87.90;;;;;;10364778;28;20054;-36
2022/10/14 10:29:34;;;;;;;5.45;4.15;;;18.80;90.50;;;;;;10344160;28;20471;-39
2022/10/14 10:35:01;;;;;;;3.78;2.60;;;19.10;87.90;;;;;;10354751;28;20049;-37
2022/10/14 10:40:27;;;;;;;6.32;4.82;;;19.80;84.30;;;;;;10338302;28;20224;-37
2022/10/14 10:45:37;;;;;;;5.88;3.67;;;18.80;91.90;;;;;;10345237;28;20690;-35
2022/10/14 10:50:47;;;;;;;5.00;3.08;;;19.20;87.50;;;;;;10359704;28;20141;-38
2022/10/14 10:55:58;;;;;;;4.65;2.22;;;19.40;88.20;;;;;;10354155;28;20051;-37
2022/10/14 11:01:06;;;;;;;3.13;2.08;;;18.90;90.40;;;;;;10367455;28;20469;-36
2022/10/14 11:12:01;;;;;;;2.40;2.20;;;19.00;89.60;;;;;;10359476;28;20073;-38
2022/10/14 11:12:06;;;;;;;3.33;2.00;;;20.00;83.80;;;;;;10363082;28;20077;-38
2022/10/14 11:17:14;;;;;;;2.22;1.70;;;20.10;81.90;;;;;;10362931;28;20047;-36
2022/10/14 11:22:37;;;;;;;2.75;1.92;;;19.40;89.20;;;;;;10347319;28;20078;-37
2022/10/14 11:27:46;;;;;;;3.55;1.80;;;19.90;84.70;;;;;;10365466;28;20085;-39
2022/10/14 11:33:05;;;;;;;2.90;1.60;;;19.20;91.50;;;;;;10368378;28;20124;-38
2022/10/14 11:38:30;;;;;;;3.05;1.23;;;18.80;90.60;;;;;;10353135;28;20105;-37
2022/10/14 11:43:41;;;;;;;2.85;1.40;;;18.50;92.10;;;;;;10364324;28;20062;-40
2022/10/14 11:48:48;;;;;;;2.03;1.20;;;18.50;92.50;;;;;;10359143;28;20104;-37
2022/10/14 11:53:59;;;;;;;2.30;1.65;;;19.20;89.10;;;;;;10360655;28;20058;-40
2022/10/14 11:59:10;;;;;;;4.10;1.70;;;19.10;88.70;;;;;;10369972;28;20049;-36
2022/10/14 12:04:19;;;;;;;2.58;1.27;;;19.60;85.90;;;;;;10358747;28;20046;-39
2022/10/14 12:09:26;;;;;;;7.03;1.25;;;20.00;84.90;;;;;;10357744;28;20053;-37
2022/10/14 12:14:35;;;;;;;3.72;1.25;;;19.20;88.80;;;;;;10368001;28;20149;-38
2022/10/14 12:19:37;;;;;;;7.03;1.00;;;19.00;91.50;;;;;;10354564;28;20428;-40
2022/10/14 12:24:42;;;;;;;1.35;0.80;;;18.20;92.70;;;;;;10364621;28;20073;-38
2022/10/14 12:29:48;;;;;;;1.30;1.00;;;19.50;90.10;;;;;;10351717;28;20487;-38
2022/10/14 12:34:52;;;;;;;1.63;0.98;;;19.90;87.90;;;;;;10358439;28;20096;-39
2022/10/14 12:40:15;;;;;;;1.75;0.90;;;19.60;88.50;;;;;;10347966;28;20057;-38
2022/10/14 12:45:22;;;;;;;3.92;1.70;;;19.00;90.80;;;;;;10370286;28;20052;-36
2022/10/14 12:50:30;;;;;;;2.15;1.33;;;19.90;87.70;;;;;;10353369;28;20046;-39
2022/10/14 12:55:39;;;;;;;3.63;1.48;;;19.20;90.20;;;;;;10351851;28;20069;-41
2022/10/14 13:00:42;;;;;;;6.32;1.45;;;19.50;89.20;;;;;;10344641;28;20419;-37
2022/10/14 13:05:45;;;;;;;1.17;1.08;;;18.80;91.00;;;;;;10367079;28;20102;-38
2022/10/14 13:10:49;;;;;;;2.65;0.70;;;19.80;87.60;;;;;;10371517;28;20454;-39
2022/10/14 13:15:52;;;;;;;2.83;1.00;;;19.30;89.80;;;;;;10360284;28;20041;-38
2022/10/14 13:20:54;;;;;;;2.47;1.10;;;19.20;90.30;;;;;;10354538;28;20050;-40
2022/10/14 13:26:06;;;;;;;2.08;0.85;;;19.60;89.10;;;;;;10353347;28;20837;-38
2022/10/14 13:31:16;;;;;;;2.27;0.87;;;19.30;89.20;;;;;;10341570;28;20050;-38
2022/10/14 13:36:23;;;;;;;5.07;0.95;;;19.60;88.50;;;;;;10347895;28;20487;-39
2022/10/14 13:41:26;;;;;;;5.25;1.00;;;19.80;87.80;;;;;;10354913;28;20554;-37
2022/10/14 13:46:35;;;;;;;1.98;0.90;;;19.70;85.50;;;;;;10334277;28;20046;-36
2022/10/14 13:51:45;;;;;;;2.45;0.60;;;19.90;86.80;;;;;;10344067;28;20137;-39
2022/10/14 13:57:01;;;;;;;3.00;1.00;;;19.70;87.10;;;;;;10362035;28;20136;-38
2022/10/14 14:02:14;;;;;;;0.85;0.77;;;19.70;85.60;;;;;;10350438;28;20474;-37
2022/10/14 14:07:18;;;;;;;3.10;0.82;;;19.80;84.30;;;;;;10359579;28;20042;-38
2022/10/14 14:12:21;;;;;;;3.28;0.90;;;19.80;86.80;;;;;;10356156;28;20623;-36
2022/10/14 14:17:26;;;;;;;4.18;0.75;;;19.80;86.60;;;;;;10361331;28;20699;-39
2022/10/14 14:22:29;;;;;;;5.10;1.02;;;20.10;85.50;;;;;;10355094;28;20057;-39
2022/10/14 14:27:33;;;;;;;2.45;0.85;;;19.80;81.30;;;;;;10358924;28;20136;-38
2022/10/14 14:32:37;;;;;;;3.97;1.05;;;19.30;89.90;;;;;;10351478;28;20503;-37
2022/10/14 14:37:43;;;;;;;4.78;0.90;;;19.80;87.80;;;;;;10349014;28;20046;-38
2022/10/14 14:42:47;;;;;;;2.58;0.90;;;19.70;86.00;;;;;;10345626;28;20051;-35
2022/10/14 14:47:54;;;;;;;2.92;0.70;;;19.70;88.60;;;;;;10361384;28;20099;-39
2022/10/14 14:53:00;;;;;;;6.78;1.13;;;20.00;83.40;;;;;;10352101;28;20100;-38
2022/10/14 14:58:04;;;;;;;2.35;1.00;;;20.00;86.70;;;;;;10370284;28;20388;-46
2022/10/14 15:03:08;;;;;;;6.93;1.58;;;20.80;82.80;;;;;;10353209;28;20050;-38
2022/10/14 15:08:20;;;;;;;4.53;1.20;;;20.80;83.10;;;;;;10349716;28;20498;-38
2022/10/14 15:13:32;;;;;;;0.93;0.80;;;21.00;82.70;;;;;;10359709;28;20504;-40
2022/10/14 15:18:36;;;;;;;6.55;0.80;;;21.20;81.00;;;;;;10355038;28;20046;-38
2022/10/14 15:23:41;;;;;;;2.00;0.63;;;21.00;81.00;;;;;;10362304;28;20133;-38
2022/10/14 15:28:42;;;;;;;4.50;1.00;;;21.00;81.90;;;;;;10359449;28;20073;-41
2022/10/14 15:33:49;;;;;;;2.72;1.17;;;20.90;82.10;;;;;;10356091;28;20049;-40
2022/10/14 15:38:57;;;;;;;3.42;0.80;;;20.90;81.70;;;;;;10352984;28;20050;-39
2022/10/14 15:43:58;;;;;;;0.80;0.65;;;21.20;80.30;;;;;;10354142;28;20400;-37
2022/10/14 15:49:04;;;;;;;2.92;0.77;;;20.30;84.80;;;;;;10357479;28;20053;-37
2022/10/14 15:54:09;;;;;;;1.73;0.57;;;21.30;80.30;;;;;;10341058;28;20046;-40
2022/10/14 15:59:11;;;;;;;2.40;0.93;;;20.90;78.30;;;;;;10366553;28;20085;-41
2022/10/14 16:04:21;;;;;;;1.70;0.95;;;20.80;82.20;;;;;;10366939;28;20042;-40
2022/10/14 16:09:23;;;;;;;1.40;0.68;;;20.40;84.60;;;;;;10364859;28;20479;-38
2022/10/14 16:14:26;;;;;;;2.42;0.90;;;20.70;83.10;;;;;;10355191;28;20046;-36
2022/10/14 16:19:30;;;;;;;3.30;1.13;;;21.10;80.90;;;;;;10367492;28;20041;-40
2022/10/14 16:24:32;;;;;;;4.97;1.17;;;21.40;79.00;;;;;;10359609;28;20053;-38
2022/10/14 16:29:34;;;;;;;4.80;1.35;;;21.50;78.50;;;;;;10364781;28;20123;-37
2022/10/14 16:34:37;;;;;;;9.27;1.60;;;21.50;77.80;;;;;;10360493;28;20049;-38
2022/10/14 16:39:39;;;;;;;5.65;1.58;;;21.40;79.20;;;;;;10366448;28;20073;-39
2022/10/14 16:44:41;;;;;;;5.25;1.83;;;21.70;78.60;;;;;;10346445;28;20073;-40
2022/10/14 16:49:45;;;;;;;11.93;1.65;;;21.70;78.50;;;;;;10366898;28;20045;-40
2022/10/14 16:54:47;;;;;;;14.95;2.33;;;21.70;78.60;;;;;;10357449;28;20485;-37
2022/10/14 16:59:49;;;;;;;8.45;2.35;;;21.60;79.40;;;;;;10353676;28;20067;-40
2022/10/14 17:04:52;;;;;;;13.50;1.88;;;21.60;79.10;;;;;;10358038;28;20088;-39
2022/10/14 17:09:54;;;;;;;11.15;1.85;;;21.50;79.30;;;;;;10357357;28;20139;-39
2022/10/14 17:14:56;;;;;;;14.68;2.38;;;21.30;80.50;;;;;;10363120;28;20070;-37
2022/10/14 17:19:59;;;;;;;5.18;1.92;;;21.40;80.30;;;;;;10367590;28;20058;-40
2022/10/14 17:25:01;;;;;;;11.93;2.33;;;21.30;80.80;;;;;;10358046;28;20173;-38
2022/10/14 17:30:03;;;;;;;8.52;1.73;;;21.40;79.50;;;;;;10361633;28;20046;-38
2022/10/14 17:35:06;;;;;;;;;;;20.90;82.80;;;;;;10350389;28;20054;-38
2022/10/14 17:40:09;;;;;;;5.32;2.85;;;21.00;82.50;;;;;;10361370;28;20008;-37
2022/10/14 17:45:11;;;;;;;8.45;1.77;;;21.00;81.60;;;;;;10357091;28;20103;-37
2022/10/14 17:50:14;;;;;;;6.43;1.33;;;21.30;80.80;;;;;;10361961;28;20085;-41
2022/10/14 17:55:17;;;;;;;6.97;2.45;;;21.20;80.80;;;;;;10341551;28;20135;-37
2022/10/14 18:00:19;;;;;;;7.05;1.60;;;21.40;79.80;;;;;;10338772;28;20093;-41
2022/10/14 18:05:23;;;;;;;3.38;1.42;;;21.40;79.80;;;;;;10340774;28;20122;-38
2022/10/14 18:10:25;;;;;;;5.90;2.25;;;21.40;79.70;;;;;;10346385;28;20068;-37
2022/10/14 18:15:29;;;;;;;4.15;2.55;;;21.20;80.70;;;;;;10340203;28;20117;-39
2022/10/14 18:20:35;;;;;;;3.95;2.38;;;21.10;80.90;;;;;;10364452;28;20060;-40
2022/10/14 18:25:37;;;;;;;7.25;2.50;;;21.30;80.40;;;;;;10367218;28;20096;-39
2022/10/14 18:30:39;;;;;;;4.35;1.95;;;21.30;80.10;;;;;;10364653;28;20081;-40
2022/10/14 18:35:42;;;;;;;5.45;2.75;;;21.20;80.60;;;;;;10364207;28;20505;-40
2022/10/14 18:40:43;;;;;;;2.80;2.08;;;21.20;78.60;;;;;;10374027;28;20130;-37
2022/10/14 18:45:45;;;;;;;6.38;1.98;;;21.20;80.70;;;;;;10347550;28;20146;-36
2022/10/14 18:50:57;;;;;;;5.88;2.67;;;21.20;80.70;;;;;;10363792;28;20078;-41
2022/10/14 18:56:03;;;;;;;5.40;1.70;;;21.30;80.50;;;;;;10367287;28;20538;-39
2022/10/14 19:01:06;;;;;;;4.75;1.70;;;21.40;79.90;;;;;;10359626;28;20051;-38
2022/10/14 19:06:11;;;;;;;4.50;1.60;;;21.50;80.10;;;;;;10360380;28;20046;-39
2022/10/14 19:11:16;;;;;;;2.67;1.15;;;21.30;80.70;;;;;;10366492;28;20125;-38
2022/10/14 19:16:20;;;;;;;6.15;2.10;;;21.50;79.90;;;;;;10371347;28;20042;-39
2022/10/14 19:21:28;;;;;;;5.95;1.45;;;21.40;80.20;;;;;;10374081;28;20050;-38
2022/10/14 19:26:32;;;;;;;8.38;1.83;;;21.30;80.10;;;;;;10361380;28;20061;-38
2022/10/14 19:31:36;;;;;;;4.30;1.50;;;21.30;80.10;;;;;;10375826;28;20077;-39
2022/10/14 19:36:40;;;;;;;7.90;1.50;;;21.30;79.90;;;;;;10369097;28;20111;-38
2022/10/14 19:41:43;;;;;;;4.47;1.80;;;21.30;78.50;;;;;;10365478;28;20093;-36
2022/10/14 19:46:45;;;;;;;5.07;1.40;;;21.20;80.30;;;;;;10367340;28;20136;-38
2022/10/14 19:51:49;;;;;;;4.68;1.15;;;21.20;80.20;;;;;;10373204;28;20085;-40
2022/10/14 19:56:50;;;;;;;4.07;1.20;;;21.10;80.20;;;;;;10368662;28;20074;-40
2022/10/14 20:01:52;;;;;;;10.30;1.75;;;21.10;80.10;;;;;;10374739;28;20503;-37
2022/10/14 20:06:55;;;;;;;5.57;2.10;;;21.20;79.70;;;;;;10376581;28;20076;-38
2022/10/14 20:11:57;;;;;;;4.55;2.45;;;21.10;79.80;;;;;;10360027;28;20053;-38
2022/10/14 20:17:00;;;;;;;7.43;1.60;;;21.00;79.10;;;;;;10370587;28;20185;-40
2022/10/14 20:22:03;;;;;;;8.05;1.60;;;21.10;79.70;;;;;;10366255;28;20046;-39
2022/10/14 20:27:05;;;;;;;5.63;2.10;;;21.10;79.40;;;;;;10350439;28;20065;-39
2022/10/14 20:32:07;;;;;;;3.10;1.17;;;21.10;79.40;;;;;;10367841;28;20096;-35
2022/10/14 20:37:10;;;;;;;2.55;1.25;;;21.10;79.80;;;;;;10374142;28;20046;-39
2022/10/14 20:42:12;;;;;;;6.55;2.08;;;21.00;79.50;;;;;;10359220;28;20100;-40
2022/10/14 20:47:14;;;;;;;4.68;1.40;;;21.10;79.10;;;;;;10350866;28;20073;-38
2022/10/14 20:52:17;;;;;;;4.18;1.25;;;21.00;79.50;;;;;;10353984;28;20085;-38
2022/10/14 20:57:19;;;;;;;4.22;1.55;;;21.00;79.70;;;;;;10352718;28;20572;-40
2022/10/14 21:02:22;;;;;;;10.35;3.75;;;20.90;79.90;;;;;;10356288;28;20085;-42
2022/10/14 21:07:25;;;;;;;2.55;1.17;;;20.60;81.20;;;;;;10364229;28;20069;-41
2022/10/14 21:12:26;;;;;;;8.38;1.33;;;20.60;81.50;;;;;;10348390;28;20054;-38
2022/10/14 21:17:28;;;;;;;5.15;2.22;;;20.40;82.60;;;;;;10352310;28;20053;-39
2022/10/14 21:22:31;;;;;;;13.43;6.05;;;20.60;81.60;;;;;;10364470;28;20050;-40
2022/10/14 21:27:33;;;;;;;6.90;2.22;;;20.40;81.40;;;;;;10376744;28;20045;-39
2022/10/14 21:32:35;;;;;;;6.18;1.75;;;20.80;80.50;;;;;;10355433;28;20069;-40
2022/10/14 21:37:38;;;;;;;6.13;2.35;;;20.40;82.30;;;;;;10362589;28;20046;-37
2022/10/14 21:42:40;;;;;;;4.90;1.83;;;20.50;81.90;;;;;;10349554;28;20077;-42
2022/10/14 21:47:42;;;;;;;3.90;1.42;;;20.40;81.60;;;;;;10351429;28;20053;-40
2022/10/14 21:52:45;;;;;;;14.00;5.93;;;20.70;80.40;;;;;;10365772;28;20122;-37
2022/10/14 21:57:47;;;;;;;5.30;2.10;;;20.50;80.60;;;;;;10356060;28;20077;-43
2022/10/14 22:02:51;;;;;;;4.38;2.40;;;20.10;82.90;;;;;;10351268;28;20495;-42
2022/10/14 22:07:55;;;;;;;6.25;2.67;;;20.10;83.40;;;;;;10349404;28;20049;-40
2022/10/14 22:12:57;;;;;;;6.50;1.65;;;20.20;82.70;;;;;;10351378;28;20169;-41
2022/10/14 22:17:59;;;;;;;1.88;1.67;;;20.70;80.40;;;;;;10375666;28;20140;-38
2022/10/14 22:23:02;;;;;;;6.18;2.25;;;20.30;82.30;;;;;;10357492;28;20053;-38
2022/10/14 22:28:06;;;;;;;10.25;3.72;;;20.30;82.30;;;;;;10350839;28;20141;-39
2022/10/14 22:33:08;;;;;;;7.32;2.95;;;20.40;81.30;;;;;;10347214;28;20438;-39
2022/10/14 22:38:11;;;;;;;4.05;1.55;;;19.90;82.60;;;;;;10389391;28;20076;-41
2022/10/14 22:43:13;;;;;;;9.02;5.78;;;20.20;82.80;;;;;;10353931;28;20125;-41
2022/10/14 22:48:15;;;;;;;3.33;1.40;;;20.20;80.80;;;;;;10361816;28;20471;-41
2022/10/14 22:53:19;;;;;;;2.58;1.30;;;20.20;82.70;;;;;;10349578;28;20421;-38
2022/10/14 22:58:21;;;;;;;6.70;3.72;;;20.50;80.50;;;;;;10361824;28;20064;-39
2022/10/14 23:03:23;;;;;;;;;;;20.00;83.10;;;;;;10359610;28;20099;-40
2022/10/14 23:08:27;;;;;;;14.33;7.30;;;20.30;81.30;;;;;;10374839;28;19991;-41
2022/10/14 23:13:29;;;;;;;2.88;1.70;;;20.10;81.60;;;;;;10365846;28;20050;-41
2022/10/14 23:18:34;;;;;;;9.85;3.92;;;20.30;80.90;;;;;;10368089;28;20056;-40
2022/10/14 23:23:38;;;;;;;10.45;5.45;;;20.10;82.20;;;;;;10356377;28;20118;-40
2022/10/14 23:28:41;;;;;;;3.58;1.73;;;20.40;80.80;;;;;;10371345;28;20091;-40
2022/10/14 23:33:43;;;;;;;3.55;1.38;;;20.40;81.00;;;;;;10363970;28;20137;-44
2022/10/14 23:38:46;;;;;;;4.90;2.05;;;20.40;81.00;;;;;;10357751;28;20077;-38
2022/10/14 23:43:49;;;;;;;6.93;4.57;;;20.20;82.00;;;;;;10363548;28;20046;-38
2022/10/14 23:48:51;;;;;;;2.22;1.80;;;20.20;81.30;;;;;;10356627;28;20096;-40
2022/10/14 23:53:54;;;;;;;2.60;1.38;;;20.40;80.50;;;;;;10351813;28;20054;-38
2022/10/14 23:58:56;;;;;;;3.35;1.50;;;20.50;80.50;;;;;;10361146;28;20097;-46
